sensor_id;sensor_type;location;lat;lon;timestamp;P1;durP1;ratioP1;P2;durP2;ratioP2
73571;SDS011;61854;48.510;-2.770;2022-09-09T00:00:22;14.38;;;2.85;;
73571;SDS011;61854;48.510;-2.770;2022-09-09T00:02:54;18.13;;;2.72;;
73571;SDS011;61854;48.510;-2.770;2022-09-09T00:05:26;16.85;;;2.92;;
73571;SDS011;61854;48.510;-2.770;2022-09-09T00:08:00;16.05;;;2.40;;
73571;SDS011;61854;48.510;-2.770;2022-09-09T00:10:37;21.00;;;3.35;;
73571;SDS011;61854;48.510;-2.770;2022-09-09T00:13:13;22.00;;;2.55;;
73571;SDS011;61854;48.510;-2.770;2022-09-09T00:15:59;15.07;;;2.60;;
73571;SDS011;61854;48.510;-2.770;2022-09-09T00:18:36;17.08;;;2.53;;
73571;SDS011;61854;48.510;-2.770;2022-09-09T00:21:08;15.70;;;2.72;;
73571;SDS011;61854;48.510;-2.770;2022-09-09T00:23:39;19.33;;;2.88;;
73571;SDS011;61854;48.510;-2.770;2022-09-09T00:26:19;17.40;;;3.07;;
73571;SDS011;61854;48.510;-2.770;2022-09-09T00:31:50;12.07;;;2.25;;
73571;SDS011;61854;48.510;-2.770;2022-09-09T00:34:21;14.00;;;2.03;;
73571;SDS011;61854;48.510;-2.770;2022-09-09T00:39:25;12.63;;;2.20;;
73571;SDS011;61854;48.510;-2.770;2022-09-09T00:42:18;13.45;;;2.60;;
73571;SDS011;61854;48.510;-2.770;2022-09-09T00:45:19;8.68;;;1.98;;
73571;SDS011;61854;48.510;-2.770;2022-09-09T00:47:54;10.93;;;2.38;;
73571;SDS011;61854;48.510;-2.770;2022-09-09T00:58:38;11.13;;;2.45;;
73571;SDS011;61854;48.510;-2.770;2022-09-09T01:01:05;11.20;;;2.00;;
73571;SDS011;61854;48.510;-2.770;2022-09-09T01:03:37;11.10;;;2.20;;
73571;SDS011;61854;48.510;-2.770;2022-09-09T01:06:22;14.93;;;2.25;;
73571;SDS011;61854;48.510;-2.770;2022-09-09T01:12:02;13.57;;;2.60;;
73571;SDS011;61854;48.510;-2.770;2022-09-09T01:22:26;13.27;;;2.10;;
73571;SDS011;61854;48.510;-2.770;2022-09-09T01:27:44;16.80;;;2.40;;
73571;SDS011;61854;48.510;-2.770;2022-09-09T01:30:13;11.93;;;2.35;;
73571;SDS011;61854;48.510;-2.770;2022-09-09T01:32:43;13.13;;;2.05;;
73571;SDS011;61854;48.510;-2.770;2022-09-09T01:37:55;16.55;;;2.63;;
73571;SDS011;61854;48.510;-2.770;2022-09-09T01:40:21;14.50;;;2.70;;
73571;SDS011;61854;48.510;-2.770;2022-09-09T01:42:47;15.40;;;2.47;;
73571;SDS011;61854;48.510;-2.770;2022-09-09T01:45:13;17.60;;;2.67;;
73571;SDS011;61854;48.510;-2.770;2022-09-09T01:47:39;13.57;;;2.20;;
73571;SDS011;61854;48.510;-2.770;2022-09-09T01:50:05;19.60;;;2.55;;
73571;SDS011;61854;48.510;-2.770;2022-09-09T01:52:34;14.88;;;2.78;;
73571;SDS011;61854;48.510;-2.770;2022-09-09T01:55:01;21.20;;;2.70;;
73571;SDS011;61854;48.510;-2.770;2022-09-09T01:57:28;19.95;;;3.30;;
73571;SDS011;61854;48.510;-2.770;2022-09-09T02:00:05;14.75;;;2.40;;
73571;SDS011;61854;48.510;-2.770;2022-09-09T02:02:42;17.20;;;2.72;;
73571;SDS011;61854;48.510;-2.770;2022-09-09T02:05:38;10.02;;;2.20;;
73571;SDS011;61854;48.510;-2.770;2022-09-09T02:10:37;13.50;;;2.50;;
73571;SDS011;61854;48.510;-2.770;2022-09-09T02:13:16;12.50;;;2.38;;
73571;SDS011;61854;48.510;-2.770;2022-09-09T02:18:30;15.18;;;2.20;;
73571;SDS011;61854;48.510;-2.770;2022-09-09T02:21:13;15.35;;;2.70;;
73571;SDS011;61854;48.510;-2.770;2022-09-09T02:23:43;16.60;;;2.67;;
73571;SDS011;61854;48.510;-2.770;2022-09-09T02:26:12;17.65;;;2.70;;
73571;SDS011;61854;48.510;-2.770;2022-09-09T02:28:44;14.75;;;2.30;;
73571;SDS011;61854;48.510;-2.770;2022-09-09T02:31:12;17.80;;;2.63;;
73571;SDS011;61854;48.510;-2.770;2022-09-09T02:33:41;11.38;;;2.72;;
73571;SDS011;61854;48.510;-2.770;2022-09-09T02:36:12;19.23;;;2.78;;
73571;SDS011;61854;48.510;-2.770;2022-09-09T02:38:42;13.85;;;2.35;;
73571;SDS011;61854;48.510;-2.770;2022-09-09T02:41:15;10.63;;;2.10;;
73571;SDS011;61854;48.510;-2.770;2022-09-09T02:43:46;13.93;;;2.78;;
73571;SDS011;61854;48.510;-2.770;2022-09-09T02:52:15;17.83;;;2.55;;
73571;SDS011;61854;48.510;-2.770;2022-09-09T02:54:50;15.20;;;2.88;;
73571;SDS011;61854;48.510;-2.770;2022-09-09T02:57:28;15.20;;;2.50;;
73571;SDS011;61854;48.510;-2.770;2022-09-09T02:59:56;14.73;;;2.85;;
73571;SDS011;61854;48.510;-2.770;2022-09-09T03:02:26;11.80;;;1.98;;
73571;SDS011;61854;48.510;-2.770;2022-09-09T03:04:51;20.50;;;3.13;;
73571;SDS011;61854;48.510;-2.770;2022-09-09T03:07:18;16.25;;;2.88;;
73571;SDS011;61854;48.510;-2.770;2022-09-09T03:09:44;17.15;;;2.92;;
73571;SDS011;61854;48.510;-2.770;2022-09-09T03:12:10;17.95;;;2.80;;
73571;SDS011;61854;48.510;-2.770;2022-09-09T03:14:36;15.18;;;3.53;;
73571;SDS011;61854;48.510;-2.770;2022-09-09T03:17:03;17.17;;;2.70;;
73571;SDS011;61854;48.510;-2.770;2022-09-09T03:19:30;19.52;;;3.33;;
73571;SDS011;61854;48.510;-2.770;2022-09-09T03:21:56;15.48;;;2.85;;
73571;SDS011;61854;48.510;-2.770;2022-09-09T03:24:23;19.10;;;2.95;;
73571;SDS011;61854;48.510;-2.770;2022-09-09T03:26:49;17.50;;;2.70;;
73571;SDS011;61854;48.510;-2.770;2022-09-09T03:29:15;22.00;;;3.53;;
73571;SDS011;61854;48.510;-2.770;2022-09-09T03:31:43;15.30;;;2.83;;
73571;SDS011;61854;48.510;-2.770;2022-09-09T03:34:09;17.88;;;2.88;;
73571;SDS011;61854;48.510;-2.770;2022-09-09T03:36:35;16.75;;;2.88;;
73571;SDS011;61854;48.510;-2.770;2022-09-09T03:39:06;14.48;;;3.10;;
73571;SDS011;61854;48.510;-2.770;2022-09-09T03:41:32;19.55;;;2.75;;
73571;SDS011;61854;48.510;-2.770;2022-09-09T03:43:57;22.35;;;2.72;;
73571;SDS011;61854;48.510;-2.770;2022-09-09T03:46:24;19.05;;;3.33;;
73571;SDS011;61854;48.510;-2.770;2022-09-09T03:48:50;14.23;;;2.30;;
73571;SDS011;61854;48.510;-2.770;2022-09-09T03:51:17;16.00;;;2.83;;
73571;SDS011;61854;48.510;-2.770;2022-09-09T03:53:43;10.93;;;2.28;;
73571;SDS011;61854;48.510;-2.770;2022-09-09T03:56:09;26.70;;;2.97;;
73571;SDS011;61854;48.510;-2.770;2022-09-09T03:58:35;18.70;;;2.60;;
73571;SDS011;61854;48.510;-2.770;2022-09-09T04:01:05;15.85;;;2.80;;
73571;SDS011;61854;48.510;-2.770;2022-09-09T04:03:35;20.23;;;3.10;;
73571;SDS011;61854;48.510;-2.770;2022-09-09T04:06:04;20.63;;;2.90;;
73571;SDS011;61854;48.510;-2.770;2022-09-09T04:08:32;17.98;;;3.10;;
73571;SDS011;61854;48.510;-2.770;2022-09-09T04:10:59;19.52;;;3.30;;
73571;SDS011;61854;48.510;-2.770;2022-09-09T04:13:30;20.73;;;3.42;;
73571;SDS011;61854;48.510;-2.770;2022-09-09T04:15:57;17.08;;;3.22;;
73571;SDS011;61854;48.510;-2.770;2022-09-09T04:18:24;14.67;;;2.90;;
73571;SDS011;61854;48.510;-2.770;2022-09-09T04:20:51;20.88;;;2.83;;
73571;SDS011;61854;48.510;-2.770;2022-09-09T04:23:18;19.40;;;3.63;;
73571;SDS011;61854;48.510;-2.770;2022-09-09T04:25:49;17.70;;;3.25;;
73571;SDS011;61854;48.510;-2.770;2022-09-09T04:28:16;16.60;;;2.50;;
73571;SDS011;61854;48.510;-2.770;2022-09-09T04:30:43;21.98;;;3.20;;
73571;SDS011;61854;48.510;-2.770;2022-09-09T04:33:09;15.48;;;2.50;;
73571;SDS011;61854;48.510;-2.770;2022-09-09T04:35:36;17.13;;;2.60;;
73571;SDS011;61854;48.510;-2.770;2022-09-09T04:38:02;18.67;;;3.10;;
73571;SDS011;61854;48.510;-2.770;2022-09-09T04:40:29;19.92;;;2.85;;
73571;SDS011;61854;48.510;-2.770;2022-09-09T04:42:57;21.70;;;3.13;;
73571;SDS011;61854;48.510;-2.770;2022-09-09T04:45:23;15.02;;;2.95;;
73571;SDS011;61854;48.510;-2.770;2022-09-09T04:47:49;15.68;;;2.60;;
73571;SDS011;61854;48.510;-2.770;2022-09-09T04:50:14;11.80;;;2.67;;
73571;SDS011;61854;48.510;-2.770;2022-09-09T04:52:41;18.27;;;3.22;;
73571;SDS011;61854;48.510;-2.770;2022-09-09T04:55:07;14.50;;;2.67;;
73571;SDS011;61854;48.510;-2.770;2022-09-09T04:57:34;11.95;;;2.42;;
73571;SDS011;61854;48.510;-2.770;2022-09-09T05:00:00;15.00;;;2.75;;
73571;SDS011;61854;48.510;-2.770;2022-09-09T05:02:27;11.60;;;2.58;;
73571;SDS011;61854;48.510;-2.770;2022-09-09T05:04:53;14.77;;;2.63;;
73571;SDS011;61854;48.510;-2.770;2022-09-09T05:07:18;14.65;;;2.55;;
73571;SDS011;61854;48.510;-2.770;2022-09-09T05:09:44;18.83;;;3.15;;
73571;SDS011;61854;48.510;-2.770;2022-09-09T05:12:10;25.67;;;3.30;;
73571;SDS011;61854;48.510;-2.770;2022-09-09T05:14:36;15.02;;;3.00;;
73571;SDS011;61854;48.510;-2.770;2022-09-09T05:17:02;14.55;;;3.08;;
73571;SDS011;61854;48.510;-2.770;2022-09-09T05:19:28;16.33;;;2.78;;
73571;SDS011;61854;48.510;-2.770;2022-09-09T05:21:56;22.35;;;3.30;;
73571;SDS011;61854;48.510;-2.770;2022-09-09T05:24:21;22.95;;;3.85;;
73571;SDS011;61854;48.510;-2.770;2022-09-09T05:26:50;22.50;;;3.45;;
73571;SDS011;61854;48.510;-2.770;2022-09-09T05:29:16;20.45;;;3.03;;
73571;SDS011;61854;48.510;-2.770;2022-09-09T05:31:44;16.40;;;2.95;;
73571;SDS011;61854;48.510;-2.770;2022-09-09T05:34:11;19.65;;;3.47;;
73571;SDS011;61854;48.510;-2.770;2022-09-09T05:36:36;21.50;;;2.90;;
73571;SDS011;61854;48.510;-2.770;2022-09-09T05:39:03;24.85;;;3.88;;
73571;SDS011;61854;48.510;-2.770;2022-09-09T05:41:28;21.35;;;3.60;;
73571;SDS011;61854;48.510;-2.770;2022-09-09T05:43:55;15.40;;;2.95;;
73571;SDS011;61854;48.510;-2.770;2022-09-09T05:46:21;23.02;;;3.55;;
73571;SDS011;61854;48.510;-2.770;2022-09-09T05:48:49;13.60;;;2.70;;
73571;SDS011;61854;48.510;-2.770;2022-09-09T05:51:20;16.07;;;3.50;;
73571;SDS011;61854;48.510;-2.770;2022-09-09T05:53:47;17.95;;;2.95;;
73571;SDS011;61854;48.510;-2.770;2022-09-09T05:56:15;19.42;;;3.05;;
73571;SDS011;61854;48.510;-2.770;2022-09-09T05:58:45;15.68;;;2.50;;
73571;SDS011;61854;48.510;-2.770;2022-09-09T06:01:18;16.65;;;2.88;;
73571;SDS011;61854;48.510;-2.770;2022-09-09T06:03:49;16.75;;;2.25;;
73571;SDS011;61854;48.510;-2.770;2022-09-09T06:06:17;11.63;;;1.90;;
73571;SDS011;61854;48.510;-2.770;2022-09-09T06:08:47;11.25;;;2.45;;
73571;SDS011;61854;48.510;-2.770;2022-09-09T06:11:16;13.68;;;2.30;;
73571;SDS011;61854;48.510;-2.770;2022-09-09T06:13:44;10.18;;;2.03;;
73571;SDS011;61854;48.510;-2.770;2022-09-09T06:16:13;10.77;;;2.10;;
73571;SDS011;61854;48.510;-2.770;2022-09-09T06:18:41;6.63;;;2.10;;
73571;SDS011;61854;48.510;-2.770;2022-09-09T06:21:27;13.18;;;3.50;;
73571;SDS011;61854;48.510;-2.770;2022-09-09T06:23:57;10.40;;;1.92;;
73571;SDS011;61854;48.510;-2.770;2022-09-09T06:26:23;10.98;;;2.47;;
73571;SDS011;61854;48.510;-2.770;2022-09-09T06:28:51;12.48;;;2.35;;
73571;SDS011;61854;48.510;-2.770;2022-09-09T06:31:19;11.57;;;2.40;;
73571;SDS011;61854;48.510;-2.770;2022-09-09T06:33:48;10.93;;;2.38;;
73571;SDS011;61854;48.510;-2.770;2022-09-09T06:36:16;13.02;;;2.75;;
73571;SDS011;61854;48.510;-2.770;2022-09-09T06:38:43;15.68;;;2.97;;
73571;SDS011;61854;48.510;-2.770;2022-09-09T06:41:10;10.50;;;3.05;;
73571;SDS011;61854;48.510;-2.770;2022-09-09T06:43:37;14.45;;;2.80;;
73571;SDS011;61854;48.510;-2.770;2022-09-09T06:46:07;12.32;;;2.40;;
73571;SDS011;61854;48.510;-2.770;2022-09-09T06:48:35;9.32;;;2.30;;
73571;SDS011;61854;48.510;-2.770;2022-09-09T06:55:58;12.90;;;2.38;;
73571;SDS011;61854;48.510;-2.770;2022-09-09T06:58:28;14.88;;;2.30;;
73571;SDS011;61854;48.510;-2.770;2022-09-09T07:01:04;16.45;;;1.90;;
73571;SDS011;61854;48.510;-2.770;2022-09-09T07:03:31;17.15;;;2.58;;
73571;SDS011;61854;48.510;-2.770;2022-09-09T07:06:00;11.40;;;1.90;;
73571;SDS011;61854;48.510;-2.770;2022-09-09T07:08:26;10.35;;;1.83;;
73571;SDS011;61854;48.510;-2.770;2022-09-09T07:10:53;8.07;;;1.75;;
73571;SDS011;61854;48.510;-2.770;2022-09-09T07:13:20;9.20;;;1.50;;
73571;SDS011;61854;48.510;-2.770;2022-09-09T07:15:50;9.65;;;2.00;;
73571;SDS011;61854;48.510;-2.770;2022-09-09T07:18:16;10.63;;;2.10;;
73571;SDS011;61854;48.510;-2.770;2022-09-09T07:20:42;14.43;;;2.08;;
73571;SDS011;61854;48.510;-2.770;2022-09-09T07:23:08;9.13;;;1.85;;
73571;SDS011;61854;48.510;-2.770;2022-09-09T07:25:34;9.88;;;1.95;;
73571;SDS011;61854;48.510;-2.770;2022-09-09T07:27:59;8.75;;;1.90;;
73571;SDS011;61854;48.510;-2.770;2022-09-09T07:30:25;11.00;;;1.90;;
73571;SDS011;61854;48.510;-2.770;2022-09-09T07:32:51;9.82;;;1.65;;
73571;SDS011;61854;48.510;-2.770;2022-09-09T07:35:17;15.35;;;2.22;;
73571;SDS011;61854;48.510;-2.770;2022-09-09T07:37:43;12.38;;;2.13;;
73571;SDS011;61854;48.510;-2.770;2022-09-09T07:40:10;10.02;;;2.03;;
73571;SDS011;61854;48.510;-2.770;2022-09-09T07:42:35;13.45;;;2.50;;
73571;SDS011;61854;48.510;-2.770;2022-09-09T07:45:02;17.45;;;2.72;;
73571;SDS011;61854;48.510;-2.770;2022-09-09T07:47:29;12.15;;;2.10;;
73571;SDS011;61854;48.510;-2.770;2022-09-09T07:49:54;11.63;;;1.98;;
73571;SDS011;61854;48.510;-2.770;2022-09-09T07:52:20;12.15;;;2.60;;
73571;SDS011;61854;48.510;-2.770;2022-09-09T07:54:46;13.50;;;2.40;;
73571;SDS011;61854;48.510;-2.770;2022-09-09T07:57:12;12.70;;;2.75;;
73571;SDS011;61854;48.510;-2.770;2022-09-09T07:59:38;19.10;;;3.45;;
73571;SDS011;61854;48.510;-2.770;2022-09-09T08:02:03;27.40;;;3.47;;
73571;SDS011;61854;48.510;-2.770;2022-09-09T08:04:29;15.18;;;3.33;;
73571;SDS011;61854;48.510;-2.770;2022-09-09T08:06:56;15.32;;;3.28;;
73571;SDS011;61854;48.510;-2.770;2022-09-09T08:09:23;15.00;;;4.07;;
73571;SDS011;61854;48.510;-2.770;2022-09-09T08:11:54;10.57;;;2.47;;
73571;SDS011;61854;48.510;-2.770;2022-09-09T08:14:21;13.35;;;2.38;;
73571;SDS011;61854;48.510;-2.770;2022-09-09T08:16:48;10.20;;;2.13;;
73571;SDS011;61854;48.510;-2.770;2022-09-09T08:19:15;13.63;;;2.08;;
73571;SDS011;61854;48.510;-2.770;2022-09-09T08:21:42;21.50;;;5.63;;
73571;SDS011;61854;48.510;-2.770;2022-09-09T08:24:09;13.17;;;2.40;;
73571;SDS011;61854;48.510;-2.770;2022-09-09T08:26:45;10.18;;;2.15;;
73571;SDS011;61854;48.510;-2.770;2022-09-09T08:29:13;19.95;;;5.75;;
73571;SDS011;61854;48.510;-2.770;2022-09-09T08:34:10;11.63;;;2.22;;
73571;SDS011;61854;48.510;-2.770;2022-09-09T08:36:38;14.05;;;2.70;;
73571;SDS011;61854;48.510;-2.770;2022-09-09T08:39:07;9.40;;;1.90;;
73571;SDS011;61854;48.510;-2.770;2022-09-09T08:44:18;11.43;;;2.20;;
73571;SDS011;61854;48.510;-2.770;2022-09-09T08:55:46;13.68;;;2.17;;
73571;SDS011;61854;48.510;-2.770;2022-09-09T08:58:18;11.75;;;2.33;;
73571;SDS011;61854;48.510;-2.770;2022-09-09T09:09:02;18.15;;;2.67;;
73571;SDS011;61854;48.510;-2.770;2022-09-09T09:11:40;14.13;;;2.42;;
73571;SDS011;61854;48.510;-2.770;2022-09-09T09:14:17;18.50;;;2.60;;
73571;SDS011;61854;48.510;-2.770;2022-09-09T09:17:02;13.13;;;2.35;;
73571;SDS011;61854;48.510;-2.770;2022-09-09T09:19:32;15.60;;;2.20;;
73571;SDS011;61854;48.510;-2.770;2022-09-09T09:25:03;13.13;;;3.00;;
73571;SDS011;61854;48.510;-2.770;2022-09-09T09:27:35;11.38;;;2.15;;
73571;SDS011;61854;48.510;-2.770;2022-09-09T09:30:12;13.55;;;2.35;;
73571;SDS011;61854;48.510;-2.770;2022-09-09T09:32:43;18.30;;;2.70;;
73571;SDS011;61854;48.510;-2.770;2022-09-09T09:35:33;11.80;;;2.13;;
73571;SDS011;61854;48.510;-2.770;2022-09-09T09:38:09;14.88;;;1.98;;
73571;SDS011;61854;48.510;-2.770;2022-09-09T09:40:51;14.20;;;2.22;;
73571;SDS011;61854;48.510;-2.770;2022-09-09T09:43:24;11.57;;;1.88;;
73571;SDS011;61854;48.510;-2.770;2022-09-09T09:46:03;11.80;;;2.10;;
73571;SDS011;61854;48.510;-2.770;2022-09-09T09:48:29;13.60;;;2.17;;
73571;SDS011;61854;48.510;-2.770;2022-09-09T09:50:59;12.50;;;2.10;;
73571;SDS011;61854;48.510;-2.770;2022-09-09T09:53:35;13.88;;;2.40;;
73571;SDS011;61854;48.510;-2.770;2022-09-09T09:56:10;11.70;;;2.22;;
73571;SDS011;61854;48.510;-2.770;2022-09-09T10:01:19;14.32;;;2.60;;
73571;SDS011;61854;48.510;-2.770;2022-09-09T10:04:20;15.20;;;2.40;;
73571;SDS011;61854;48.510;-2.770;2022-09-09T10:06:45;13.50;;;1.90;;
73571;SDS011;61854;48.510;-2.770;2022-09-09T10:09:21;14.23;;;2.78;;
73571;SDS011;61854;48.510;-2.770;2022-09-09T10:17:27;14.73;;;2.30;;
73571;SDS011;61854;48.510;-2.770;2022-09-09T10:22:52;16.35;;;2.72;;
73571;SDS011;61854;48.510;-2.770;2022-09-09T10:25:55;13.93;;;2.67;;
73571;SDS011;61854;48.510;-2.770;2022-09-09T10:37:11;22.83;;;3.00;;
73571;SDS011;61854;48.510;-2.770;2022-09-09T10:40:02;13.98;;;2.63;;
73571;SDS011;61854;48.510;-2.770;2022-09-09T10:42:43;15.35;;;2.42;;
73571;SDS011;61854;48.510;-2.770;2022-09-09T10:50:44;35.42;;;3.83;;
73571;SDS011;61854;48.510;-2.770;2022-09-09T10:56:04;11.88;;;2.10;;
73571;SDS011;61854;48.510;-2.770;2022-09-09T10:58:38;14.13;;;2.05;;
73571;SDS011;61854;48.510;-2.770;2022-09-09T11:01:15;9.55;;;2.15;;
73571;SDS011;61854;48.510;-2.770;2022-09-09T11:03:54;16.73;;;2.92;;
73571;SDS011;61854;48.510;-2.770;2022-09-09T11:06:25;14.45;;;2.55;;
73571;SDS011;61854;48.510;-2.770;2022-09-09T11:08:58;14.35;;;2.75;;
73571;SDS011;61854;48.510;-2.770;2022-09-09T11:11:42;17.23;;;3.15;;
73571;SDS011;61854;48.510;-2.770;2022-09-09T11:14:15;21.98;;;2.90;;
73571;SDS011;61854;48.510;-2.770;2022-09-09T11:16:50;13.93;;;2.22;;
73571;SDS011;61854;48.510;-2.770;2022-09-09T11:19:28;13.15;;;2.13;;
73571;SDS011;61854;48.510;-2.770;2022-09-09T11:22:00;17.45;;;2.35;;
73571;SDS011;61854;48.510;-2.770;2022-09-09T11:24:41;13.18;;;2.20;;
73571;SDS011;61854;48.510;-2.770;2022-09-09T11:32:18;15.40;;;2.90;;
73571;SDS011;61854;48.510;-2.770;2022-09-09T11:37:58;12.88;;;2.10;;
73571;SDS011;61854;48.510;-2.770;2022-09-09T11:40:27;13.90;;;2.40;;
73571;SDS011;61854;48.510;-2.770;2022-09-09T11:43:09;16.08;;;2.42;;
73571;SDS011;61854;48.510;-2.770;2022-09-09T11:45:40;18.10;;;2.30;;
73571;SDS011;61854;48.510;-2.770;2022-09-09T11:48:28;13.52;;;1.77;;
73571;SDS011;61854;48.510;-2.770;2022-09-09T11:51:00;16.67;;;2.55;;
73571;SDS011;61854;48.510;-2.770;2022-09-09T11:53:58;13.20;;;1.90;;
73571;SDS011;61854;48.510;-2.770;2022-09-09T11:56:32;15.10;;;2.15;;
73571;SDS011;61854;48.510;-2.770;2022-09-09T12:02:03;18.13;;;2.60;;
73571;SDS011;61854;48.510;-2.770;2022-09-09T12:07:28;16.25;;;2.13;;
73571;SDS011;61854;48.510;-2.770;2022-09-09T12:09:58;16.63;;;2.55;;
73571;SDS011;61854;48.510;-2.770;2022-09-09T12:12:31;17.02;;;2.50;;
73571;SDS011;61854;48.510;-2.770;2022-09-09T12:20:18;13.68;;;2.35;;
73571;SDS011;61854;48.510;-2.770;2022-09-09T12:25:38;11.90;;;2.30;;
73571;SDS011;61854;48.510;-2.770;2022-09-09T12:28:20;19.75;;;2.60;;
73571;SDS011;61854;48.510;-2.770;2022-09-09T12:31:08;17.70;;;2.13;;
73571;SDS011;61854;48.510;-2.770;2022-09-09T12:34:54;17.20;;;3.15;;
73571;SDS011;61854;48.510;-2.770;2022-09-09T12:40:31;19.33;;;3.25;;
73571;SDS011;61854;48.510;-2.770;2022-09-09T12:43:00;19.75;;;2.40;;
73571;SDS011;61854;48.510;-2.770;2022-09-09T12:45:31;13.90;;;2.38;;
73571;SDS011;61854;48.510;-2.770;2022-09-09T12:48:04;19.85;;;2.40;;
73571;SDS011;61854;48.510;-2.770;2022-09-09T12:50:37;15.95;;;2.53;;
73571;SDS011;61854;48.510;-2.770;2022-09-09T12:53:30;16.05;;;2.78;;
73571;SDS011;61854;48.510;-2.770;2022-09-09T12:56:00;30.13;;;2.67;;
73571;SDS011;61854;48.510;-2.770;2022-09-09T12:58:29;21.15;;;3.17;;
73571;SDS011;61854;48.510;-2.770;2022-09-09T13:00:59;20.83;;;2.78;;
73571;SDS011;61854;48.510;-2.770;2022-09-09T13:03:29;13.82;;;2.25;;
73571;SDS011;61854;48.510;-2.770;2022-09-09T13:05:57;10.77;;;2.13;;
73571;SDS011;61854;48.510;-2.770;2022-09-09T13:08:27;8.95;;;2.33;;
73571;SDS011;61854;48.510;-2.770;2022-09-09T13:10:59;17.48;;;2.83;;
73571;SDS011;61854;48.510;-2.770;2022-09-09T13:13:38;12.82;;;2.33;;
73571;SDS011;61854;48.510;-2.770;2022-09-09T13:16:06;12.85;;;2.60;;
73571;SDS011;61854;48.510;-2.770;2022-09-09T13:18:43;17.27;;;3.08;;
73571;SDS011;61854;48.510;-2.770;2022-09-09T13:21:08;10.25;;;1.70;;
73571;SDS011;61854;48.510;-2.770;2022-09-09T13:23:35;21.27;;;3.20;;
73571;SDS011;61854;48.510;-2.770;2022-09-09T13:26:53;12.18;;;2.00;;
73571;SDS011;61854;48.510;-2.770;2022-09-09T13:28:51;10.75;;;2.33;;
73571;SDS011;61854;48.510;-2.770;2022-09-09T13:31:33;10.30;;;1.70;;
73571;SDS011;61854;48.510;-2.770;2022-09-09T13:34:11;12.70;;;2.03;;
73571;SDS011;61854;48.510;-2.770;2022-09-09T13:36:58;9.70;;;1.58;;
73571;SDS011;61854;48.510;-2.770;2022-09-09T13:39:30;18.98;;;2.13;;
73571;SDS011;61854;48.510;-2.770;2022-09-09T13:41:59;19.92;;;2.38;;
73571;SDS011;61854;48.510;-2.770;2022-09-09T13:47:00;9.52;;;1.60;;
73571;SDS011;61854;48.510;-2.770;2022-09-09T13:49:28;8.90;;;1.77;;
73571;SDS011;61854;48.510;-2.770;2022-09-09T13:54:52;6.70;;;1.55;;
73571;SDS011;61854;48.510;-2.770;2022-09-09T13:57:20;7.18;;;1.20;;
73571;SDS011;61854;48.510;-2.770;2022-09-09T13:59:50;9.48;;;1.67;;
73571;SDS011;61854;48.510;-2.770;2022-09-09T14:02:17;8.00;;;1.40;;
73571;SDS011;61854;48.510;-2.770;2022-09-09T14:04:43;4.95;;;1.30;;
73571;SDS011;61854;48.510;-2.770;2022-09-09T14:07:13;21.58;;;2.10;;
73571;SDS011;61854;48.510;-2.770;2022-09-09T14:09:40;36.70;;;2.40;;
73571;SDS011;61854;48.510;-2.770;2022-09-09T14:12:08;7.00;;;1.45;;
73571;SDS011;61854;48.510;-2.770;2022-09-09T14:14:40;9.32;;;1.48;;
73571;SDS011;61854;48.510;-2.770;2022-09-09T14:17:07;11.38;;;1.55;;
73571;SDS011;61854;48.510;-2.770;2022-09-09T14:19:33;6.38;;;1.20;;
73571;SDS011;61854;48.510;-2.770;2022-09-09T14:21:59;6.88;;;1.17;;
73571;SDS011;61854;48.510;-2.770;2022-09-09T14:24:26;6.38;;;1.30;;
73571;SDS011;61854;48.510;-2.770;2022-09-09T14:26:52;14.43;;;1.50;;
73571;SDS011;61854;48.510;-2.770;2022-09-09T14:29:18;10.23;;;1.42;;
73571;SDS011;61854;48.510;-2.770;2022-09-09T14:31:44;7.55;;;1.27;;
73571;SDS011;61854;48.510;-2.770;2022-09-09T14:34:09;4.20;;;1.02;;
73571;SDS011;61854;48.510;-2.770;2022-09-09T14:36:36;4.60;;;1.00;;
73571;SDS011;61854;48.510;-2.770;2022-09-09T14:39:02;6.07;;;1.02;;
73571;SDS011;61854;48.510;-2.770;2022-09-09T14:41:29;8.70;;;1.23;;
73571;SDS011;61854;48.510;-2.770;2022-09-09T14:43:55;5.95;;;1.00;;
73571;SDS011;61854;48.510;-2.770;2022-09-09T14:46:21;6.75;;;0.93;;
73571;SDS011;61854;48.510;-2.770;2022-09-09T14:48:48;8.13;;;1.10;;
73571;SDS011;61854;48.510;-2.770;2022-09-09T14:51:15;7.57;;;0.93;;
73571;SDS011;61854;48.510;-2.770;2022-09-09T14:53:44;5.25;;;1.02;;
73571;SDS011;61854;48.510;-2.770;2022-09-09T14:56:11;5.72;;;1.15;;
73571;SDS011;61854;48.510;-2.770;2022-09-09T14:58:39;6.80;;;0.88;;
73571;SDS011;61854;48.510;-2.770;2022-09-09T15:01:06;6.97;;;1.33;;
73571;SDS011;61854;48.510;-2.770;2022-09-09T15:03:37;7.47;;;1.27;;
73571;SDS011;61854;48.510;-2.770;2022-09-09T15:06:07;7.85;;;1.40;;
73571;SDS011;61854;48.510;-2.770;2022-09-09T15:08:37;6.28;;;1.45;;
73571;SDS011;61854;48.510;-2.770;2022-09-09T15:11:05;10.90;;;1.20;;
73571;SDS011;61854;48.510;-2.770;2022-09-09T15:13:35;8.30;;;1.30;;
73571;SDS011;61854;48.510;-2.770;2022-09-09T15:18:57;7.45;;;1.38;;
73571;SDS011;61854;48.510;-2.770;2022-09-09T15:21:24;6.63;;;1.10;;
73571;SDS011;61854;48.510;-2.770;2022-09-09T15:23:56;6.85;;;1.75;;
73571;SDS011;61854;48.510;-2.770;2022-09-09T15:26:22;5.28;;;1.20;;
73571;SDS011;61854;48.510;-2.770;2022-09-09T15:28:48;5.65;;;1.27;;
73571;SDS011;61854;48.510;-2.770;2022-09-09T15:31:17;7.88;;;1.40;;
73571;SDS011;61854;48.510;-2.770;2022-09-09T15:33:50;6.43;;;1.20;;
73571;SDS011;61854;48.510;-2.770;2022-09-09T15:36:22;6.75;;;1.30;;
73571;SDS011;61854;48.510;-2.770;2022-09-09T15:38:49;9.30;;;1.50;;
73571;SDS011;61854;48.510;-2.770;2022-09-09T15:41:16;8.18;;;1.30;;
73571;SDS011;61854;48.510;-2.770;2022-09-09T15:43:47;7.80;;;1.27;;
73571;SDS011;61854;48.510;-2.770;2022-09-09T15:48:43;7.65;;;1.15;;
73571;SDS011;61854;48.510;-2.770;2022-09-09T15:51:09;5.45;;;1.10;;
73571;SDS011;61854;48.510;-2.770;2022-09-09T15:53:35;7.53;;;1.27;;
73571;SDS011;61854;48.510;-2.770;2022-09-09T15:56:02;7.32;;;1.65;;
73571;SDS011;61854;48.510;-2.770;2022-09-09T15:58:30;5.65;;;1.20;;
73571;SDS011;61854;48.510;-2.770;2022-09-09T16:01:10;9.73;;;1.60;;
73571;SDS011;61854;48.510;-2.770;2022-09-09T16:03:38;9.73;;;1.38;;
73571;SDS011;61854;48.510;-2.770;2022-09-09T16:06:08;11.15;;;1.75;;
73571;SDS011;61854;48.510;-2.770;2022-09-09T16:08:38;13.57;;;1.95;;
73571;SDS011;61854;48.510;-2.770;2022-09-09T16:11:09;9.20;;;1.98;;
73571;SDS011;61854;48.510;-2.770;2022-09-09T16:13:37;9.30;;;1.33;;
73571;SDS011;61854;48.510;-2.770;2022-09-09T16:16:06;8.02;;;1.35;;
73571;SDS011;61854;48.510;-2.770;2022-09-09T16:18:35;9.95;;;1.77;;
73571;SDS011;61854;48.510;-2.770;2022-09-09T16:21:05;12.88;;;1.90;;
73571;SDS011;61854;48.510;-2.770;2022-09-09T16:23:33;10.05;;;2.03;;
73571;SDS011;61854;48.510;-2.770;2022-09-09T16:25:59;11.98;;;1.92;;
73571;SDS011;61854;48.510;-2.770;2022-09-09T16:28:25;13.50;;;2.30;;
73571;SDS011;61854;48.510;-2.770;2022-09-09T16:30:51;9.00;;;1.63;;
73571;SDS011;61854;48.510;-2.770;2022-09-09T16:33:17;14.80;;;2.20;;
73571;SDS011;61854;48.510;-2.770;2022-09-09T16:35:43;16.85;;;2.50;;
73571;SDS011;61854;48.510;-2.770;2022-09-09T16:38:09;10.63;;;2.20;;
73571;SDS011;61854;48.510;-2.770;2022-09-09T16:40:38;13.65;;;2.10;;
73571;SDS011;61854;48.510;-2.770;2022-09-09T16:43:06;10.57;;;1.80;;
73571;SDS011;61854;48.510;-2.770;2022-09-09T16:45:32;12.40;;;2.15;;
73571;SDS011;61854;48.510;-2.770;2022-09-09T16:48:01;12.68;;;2.08;;
73571;SDS011;61854;48.510;-2.770;2022-09-09T16:50:27;13.25;;;2.55;;
73571;SDS011;61854;48.510;-2.770;2022-09-09T16:52:52;14.10;;;2.55;;
73571;SDS011;61854;48.510;-2.770;2022-09-09T16:55:18;13.73;;;2.05;;
73571;SDS011;61854;48.510;-2.770;2022-09-09T16:57:47;12.10;;;1.98;;